Time;durP1;ratioP1;P1;durP2;ratioP2;P2;SDS_P1;SDS_P2;PMS_P1;PMS_P2;Temp;Humidity;BMP_temperature;BMP_pressure;BME280_temperature;BME280_humidity;BME280_pressure;Samples;Min_cycle;Max_cycle;Signal;HPM_P1;HPM_P2
2022/07/17 00:00:28;;;;;;;3.90;1.35;;;;;;;14.50;61.43;102577.41;5089387;28;20476;-71
2022/07/17 00:02:55;;;;;;;8.05;1.30;;;;;;;14.49;61.90;102580.97;5092535;28;20068;-71
2022/07/17 00:05:22;;;;;;;3.38;1.00;;;;;;;14.47;62.24;102578.34;5094502;28;20037;-71
2022/07/17 00:07:50;;;;;;;3.50;1.13;;;;;;;14.48;62.16;102581.88;5087156;28;20122;-72
2022/07/17 00:10:17;;;;;;;3.03;1.33;;;;;;;14.40;62.16;102585.53;5108892;28;20040;-72
2022/07/17 00:12:44;;;;;;;4.75;1.40;;;;;;;14.34;62.10;102583.03;5092138;27;20575;-73
2022/07/17 00:15:12;;;;;;;2.97;1.23;;;;;;;14.27;62.38;102579.59;5093538;28;20048;-73
2022/07/17 00:17:40;;;;;;;4.97;1.20;;;;;;;14.23;62.45;102592.94;5087769;28;20050;-73
2022/07/17 00:20:08;;;;;;;4.97;1.20;;;;;;;14.16;62.69;102589.53;5092559;28;20045;-73
2022/07/17 00:22:36;;;;;;;4.43;1.27;;;;;;;14.09;63.14;102583.44;5106001;27;20123;-72
2022/07/17 00:25:05;;;;;;;3.90;1.10;;;;;;;14.06;63.27;102582.63;5092712;28;20495;-72
2022/07/17 00:27:33;;;;;;;3.38;1.05;;;;;;;14.04;63.83;102585.28;5092473;28;20037;-73
2022/07/17 00:30:00;;;;;;;7.00;1.05;;;;;;;14.04;64.07;102582.63;5090848;28;20041;-72
2022/07/17 00:32:28;;;;;;;3.65;1.50;;;;;;;14.04;63.97;102579.13;5090734;28;20090;-73
2022/07/17 00:34:55;;;;;;;4.13;1.40;;;;;;;14.00;63.87;102577.41;5093636;28;20063;-71
2022/07/17 00:37:23;;;;;;;4.13;1.10;;;;;;;13.93;64.44;102579.31;5090992;28;20545;-71
2022/07/17 00:39:50;;;;;;;4.78;1.40;;;;;;;13.89;64.86;102573.16;5092571;28;20106;-71
2022/07/17 00:42:17;;;;;;;4.95;1.30;;;;;;;13.87;64.96;102577.63;5087556;28;20037;-71
2022/07/17 00:44:46;;;;;;;5.38;1.35;;;;;;;13.83;65.05;102578.56;5091992;28;20040;-72
2022/07/17 00:47:17;;;;;;;5.70;1.38;;;;;;;13.75;65.54;102581.34;5090772;28;20557;-71
2022/07/17 00:49:45;;;;;;;8.80;1.40;;;;;;;13.63;65.54;102579.78;5091162;28;20036;-72
2022/07/17 00:52:15;;;;;;;6.18;1.40;;;;;;;13.53;65.97;102572.88;5092854;28;20041;-71
2022/07/17 00:54:45;;;;;;;6.57;1.30;;;;;;;13.47;66.25;102583.56;5089781;28;20494;-71
2022/07/17 00:57:15;;;;;;;6.03;1.60;;;;;;;13.43;66.10;102576.53;5090461;28;20102;-71
2022/07/17 00:59:42;;;;;;;3.95;1.40;;;;;;;13.47;66.66;102580.91;5089225;28;21058;-71
2022/07/17 01:02:15;;;;;;;7.03;1.40;;;;;;;13.51;66.48;102578.19;5091186;28;20040;-71
2022/07/17 01:04:44;;;;;;;;;;;;;;;13.45;66.21;102570.31;5090944;28;20057;-72
2022/07/17 01:07:12;;;;;;;4.97;1.52;;;;;;;13.44;66.37;102565.06;5090287;28;20035;-72
2022/07/17 01:09:39;;;;;;;3.63;1.20;;;;;;;13.43;66.68;102566.81;5088330;28;20114;-73
2022/07/17 01:12:09;;;;;;;4.45;1.38;;;;;;;13.39;66.66;102574.78;5091279;28;20035;-71
2022/07/17 01:14:36;;;;;;;8.48;1.65;;;;;;;13.31;66.93;102565.19;5090417;28;20040;-72
2022/07/17 01:17:04;;;;;;;6.28;1.42;;;;;;;13.24;67.11;102571.47;5092024;28;20049;-72
2022/07/17 01:19:31;;;;;;;10.35;1.90;;;;;;;13.23;67.32;102564.44;5089040;28;20045;-72
2022/07/17 01:21:58;;;;;;;6.90;1.50;;;;;;;13.24;67.23;102568.84;5092298;28;20036;-73
2022/07/17 01:24:25;;;;;;;5.45;1.50;;;;;;;13.25;67.30;102559.09;5090497;28;20860;-72
2022/07/17 01:26:53;;;;;;;6.35;1.60;;;;;;;13.18;67.20;102564.50;5091065;28;20075;-72
2022/07/17 01:29:21;;;;;;;8.85;1.85;;;;;;;13.15;67.58;102561.03;5087107;28;20040;-72
2022/07/17 01:31:49;;;;;;;3.92;1.42;;;;;;;13.12;67.30;102566.34;5087677;28;20043;-71
2022/07/17 01:34:18;;;;;;;4.13;1.58;;;;;;;13.08;67.40;102559.31;5089939;28;20032;-71
2022/07/17 01:36:45;;;;;;;4.47;1.60;;;;;;;13.02;67.85;102565.63;5092065;28;20044;-71
2022/07/17 01:39:12;;;;;;;4.28;1.40;;;;;;;12.96;67.78;102568.31;5087936;28;20044;-71
2022/07/17 01:41:40;;;;;;;6.53;1.50;;;;;;;12.92;68.17;102563.97;5082931;28;20072;-74
2022/07/17 01:44:08;;;;;;;4.50;1.45;;;;;;;12.97;68.17;102578.03;5089513;28;20090;-76
2022/07/17 01:46:35;;;;;;;3.13;1.50;;;;;;;12.93;68.00;102561.31;5090095;28;20575;-74
2022/07/17 01:49:02;;;;;;;3.58;1.40;;;;;;;12.90;67.63;102566.63;5085815;28;20040;-75
2022/07/17 01:51:30;;;;;;;3.88;1.50;;;;;;;12.86;67.58;102579.03;5089310;28;20076;-75
2022/07/17 01:53:58;;;;;;;4.40;1.55;;;;;;;12.81;67.75;102572.03;5090056;28;20133;-75
2022/07/17 01:56:25;;;;;;;4.45;1.58;;;;;;;12.75;67.56;102570.34;5093133;28;20089;-75
2022/07/17 01:58:53;;;;;;;4.32;1.20;;;;;;;12.71;67.58;102572.16;5089671;28;20040;-74
2022/07/17 02:01:20;;;;;;;3.78;1.60;;;;;;;12.65;67.69;102574.88;5085513;28;20092;-74
2022/07/17 02:03:47;;;;;;;6.00;1.77;;;;;;;12.61;67.78;102567.00;5089422;28;20044;-74
2022/07/17 02:06:15;;;;;;;3.78;1.45;;;;;;;12.55;67.86;102571.44;5089476;28;20141;-73
2022/07/17 02:08:42;;;;;;;4.15;1.50;;;;;;;12.51;68.67;102563.56;5103467;28;20083;-74
2022/07/17 02:11:09;;;;;;;3.80;1.50;;;;;;;12.48;69.09;102564.47;5087387;28;20037;-74
2022/07/17 02:13:39;;;;;;;4.05;1.40;;;;;;;12.52;69.53;102566.19;5086951;28;20048;-73
2022/07/17 02:16:06;;;;;;;3.33;1.50;;;;;;;12.54;69.41;102564.41;5089309;28;20060;-74
2022/07/17 02:18:34;;;;;;;6.40;1.58;;;;;;;12.45;69.73;102568.94;5080136;28;20504;-74
2022/07/17 02:21:02;;;;;;;5.00;1.33;;;;;;;12.36;70.16;102562.81;5091104;28;20068;-72
2022/07/17 02:23:29;;;;;;;3.05;1.25;;;;;;;12.28;70.32;102567.31;5090239;28;20123;-72
2022/07/17 02:25:56;;;;;;;3.67;1.63;;;;;;;12.27;70.63;102570.84;5090912;28;20053;-72
2022/07/17 02:28:23;;;;;;;3.97;1.38;;;;;;;12.30;70.60;102584.03;5087810;28;20033;-72
2022/07/17 02:30:51;;;;;;;3.03;1.63;;;;;;;12.32;70.77;102586.66;5090505;28;20551;-72
2022/07/17 02:33:19;;;;;;;8.18;2.00;;;;;;;12.34;70.87;102579.59;5088610;28;20388;-72
2022/07/17 02:35:46;;;;;;;5.78;1.40;;;;;;;12.32;70.78;102571.69;5089114;28;20068;-73
2022/07/17 02:38:13;;;;;;;5.00;1.63;;;;;;;12.28;70.92;102572.59;5089812;28;20067;-72
2022/07/17 02:40:41;;;;;;;7.70;1.40;;;;;;;12.27;70.90;102573.50;5090258;28;20040;-72
2022/07/17 02:43:08;;;;;;;4.45;1.70;;;;;;;12.29;71.15;102576.13;5087496;28;20565;-72
2022/07/17 02:45:36;;;;;;;6.60;1.85;;;;;;;12.25;71.10;102568.22;5087794;28;20098;-71
2022/07/17 02:48:03;;;;;;;6.72;2.10;;;;;;;12.29;71.13;102573.50;5089684;28;20861;-71
2022/07/17 02:50:31;;;;;;;5.63;1.77;;;;;;;12.31;71.22;102572.56;5090809;28;20037;-71
2022/07/17 02:52:58;;;;;;;4.90;1.60;;;;;;;12.31;71.22;102572.56;5090947;28;20041;-72
2022/07/17 02:55:25;;;;;;;3.70;1.75;;;;;;;12.29;71.15;102570.84;5090194;28;20045;-72
2022/07/17 02:57:55;;;;;;;6.10;2.45;;;;;;;12.28;71.33;102577.88;5089203;28;20190;-73
2022/07/17 03:00:22;;;;;;;7.75;2.10;;;;;;;12.22;71.18;102577.97;5091324;28;21355;-72
2022/07/17 03:02:50;;;;;;;4.15;2.08;;;;;;;12.13;71.42;102576.28;5095470;28;20593;-73
2022/07/17 03:05:17;;;;;;;4.75;1.80;;;;;;;12.07;71.86;102569.25;5092049;28;20393;-72
2022/07/17 03:07:45;;;;;;;3.92;1.90;;;;;;;12.03;72.02;102571.94;5094151;28;20664;-73
2022/07/17 03:10:14;;;;;;;4.47;2.00;;;;;;;11.96;72.25;102577.28;5088719;28;20060;-73
2022/07/17 03:12:43;;;;;;;6.72;2.22;;;;;;;11.94;72.10;102578.19;5092113;28;20080;-72
2022/07/17 03:15:11;;;;;;;5.40;2.15;;;;;;;11.91;72.21;102580.84;5092321;28;20076;-73
2022/07/17 03:17:41;;;;;;;8.68;2.00;;;;;;;11.83;72.50;102580.91;5093819;28;20136;-74
2022/07/17 03:20:10;;;;;;;4.13;2.00;;;;;;;11.81;72.53;102577.38;5090502;28;20483;-74
2022/07/17 03:22:37;;;;;;;5.20;2.50;;;;;;;11.76;72.83;102576.56;5088315;28;20098;-72
2022/07/17 03:25:06;;;;;;;5.28;2.40;;;;;;;11.73;72.89;102574.81;5091612;28;20043;-73
2022/07/17 03:27:34;;;;;;;5.80;2.20;;;;;;;11.71;73.23;102592.44;5093113;28;20044;-74
2022/07/17 03:30:01;;;;;;;5.45;1.92;;;;;;;11.71;72.96;102578.34;5091547;28;20111;-73
2022/07/17 03:32:29;;;;;;;4.47;2.20;;;;;;;11.70;72.87;102573.97;5092885;28;20040;-73
2022/07/17 03:34:56;;;;;;;4.47;2.00;;;;;;;11.69;72.92;102588.94;5092308;28;20534;-73
2022/07/17 03:37:23;;;;;;;5.60;2.15;;;;;;;11.67;73.20;102588.06;5092190;28;20047;-73
2022/07/17 03:39:50;;;;;;;3.80;1.95;;;;;;;11.64;72.89;102585.47;5090175;28;20106;-72
2022/07/17 03:42:17;;;;;;;4.22;2.17;;;;;;;11.60;72.77;102579.28;5094479;28;20068;-73
2022/07/17 03:44:45;;;;;;;5.47;2.33;;;;;;;11.58;73.08;102578.44;5092378;28;20045;-73
2022/07/17 03:47:12;;;;;;;7.32;2.60;;;;;;;11.59;73.03;102584.59;5093336;28;20110;-73
2022/07/17 03:49:39;;;;;;;7.18;2.53;;;;;;;11.60;72.55;102592.50;5092442;28;20094;-72
2022/07/17 03:52:06;;;;;;;5.60;2.50;;;;;;;11.59;72.67;102592.53;5093260;28;20041;-72
2022/07/17 03:54:34;;;;;;;4.90;2.08;;;;;;;11.59;72.74;102590.78;5093460;28;20045;-72
2022/07/17 03:57:01;;;;;;;4.78;2.00;;;;;;;11.60;72.76;102591.63;5090504;28;20033;-72
2022/07/17 03:59:29;;;;;;;5.40;2.13;;;;;;;11.61;72.36;102578.41;5092222;28;20045;-72
2022/07/17 04:01:56;;;;;;;5.32;2.17;;;;;;;11.63;72.41;102575.78;5089693;28;20136;-73
2022/07/17 04:04:23;;;;;;;5.20;2.00;;;;;;;11.62;72.09;102574.00;5092079;28;20039;-75
2022/07/17 04:06:51;;;;;;;3.47;1.95;;;;;;;11.62;72.29;102572.25;5089961;28;20110;-73
2022/07/17 04:09:18;;;;;;;8.48;2.33;;;;;;;11.84;72.63;102571.22;5087503;28;20041;-72
2022/07/17 04:11:45;;;;;;;4.18;1.95;;;;;;;12.01;72.17;102584.31;5087682;28;20102;-72
2022/07/17 04:14:13;;;;;;;7.57;2.03;;;;;;;11.95;72.50;102596.66;5095977;28;20491;-72
2022/07/17 04:16:40;;;;;;;4.25;2.13;;;;;;;11.95;72.60;102599.31;5092612;28;20520;-71
2022/07/17 04:19:07;;;;;;;5.72;2.10;;;;;;;11.95;72.38;102591.38;5092658;28;20039;-72
2022/07/17 04:21:34;;;;;;;4.93;2.10;;;;;;;11.94;72.62;102594.91;5098143;28;20491;-72
2022/07/17 04:24:02;;;;;;;6.78;2.13;;;;;;;11.99;72.41;102597.53;5093607;27;20068;-71
2022/07/17 04:26:29;;;;;;;7.07;2.20;;;;;;;12.00;72.52;102598.44;5092012;28;20072;-71
2022/07/17 04:28:56;;;;;;;5.60;2.40;;;;;;;12.01;72.27;102602.81;5091367;28;20072;-70
2022/07/17 04:31:23;;;;;;;4.22;2.38;;;;;;;12.05;72.00;102599.25;5087992;28;20120;-73
2022/07/17 04:33:52;;;;;;;7.18;2.30;;;;;;;12.08;72.09;102604.53;5091716;28;20102;-72
2022/07/17 04:36:19;;;;;;;7.05;2.42;;;;;;;12.14;71.84;102606.25;5090576;28;20465;-75
2022/07/17 04:38:46;;;;;;;7.03;2.50;;;;;;;12.22;71.86;102614.97;5092462;28;20110;-74
2022/07/17 04:41:13;;;;;;;4.00;2.17;;;;;;;12.33;72.06;102615.75;5086211;28;20048;-73
2022/07/17 04:43:41;;;;;;;4.90;1.98;;;;;;;12.51;71.81;102625.28;5091507;28;20048;-73
2022/07/17 04:46:08;;;;;;;7.32;2.05;;;;;;;12.67;71.55;102612.75;5090528;28;20138;-74
2022/07/17 04:48:36;;;;;;;4.80;2.22;;;;;;;12.79;71.14;102608.22;5091732;28;20040;-74
2022/07/17 04:51:03;;;;;;;6.07;1.95;;;;;;;12.88;70.81;102616.94;5091462;28;20045;-73
2022/07/17 04:53:30;;;;;;;5.35;1.92;;;;;;;13.01;70.54;102608.88;5091415;28;20041;-74
2022/07/17 04:55:57;;;;;;;5.57;1.77;;;;;;;13.16;69.95;102615.75;5089970;28;20109;-75
2022/07/17 04:58:25;;;;;;;7.03;2.20;;;;;;;13.23;69.89;102613.88;5091147;28;20600;-74
2022/07/17 05:00:52;;;;;;;5.05;2.00;;;;;;;13.22;69.74;102620.94;5090563;28;20048;-73
2022/07/17 05:03:19;;;;;;;7.45;2.30;;;;;;;13.21;69.54;102613.88;5090044;28;20041;-74
2022/07/17 05:05:47;;;;;;;6.57;2.00;;;;;;;13.17;69.56;102626.31;5090866;28;20064;-74
2022/07/17 05:08:17;;;;;;;9.10;2.10;;;;;;;13.17;69.73;102625.44;5091475;28;20044;-73
2022/07/17 05:10:45;;;;;;;6.63;2.33;;;;;;;13.22;69.94;102630.66;5089044;28;20040;-73
2022/07/17 05:13:12;;;;;;;6.13;2.13;;;;;;;13.31;69.65;102634.06;5088832;28;20161;-72
2022/07/17 05:15:39;;;;;;;6.68;2.20;;;;;;;13.43;69.37;102633.03;5091580;28;20496;-73
2022/07/17 05:18:07;;;;;;;4.65;2.30;;;;;;;13.57;68.92;102630.22;5090377;28;20052;-72
2022/07/17 05:20:35;;;;;;;4.93;2.25;;;;;;;13.68;68.71;102629.19;5105243;27;20071;-73
2022/07/17 05:23:02;;;;;;;5.70;2.35;;;;;;;13.88;68.50;102623.56;5086000;28;20837;-72
2022/07/17 05:25:29;;;;;;;5.38;1.95;;;;;;;14.03;67.60;102626.00;5089863;28;20123;-71
2022/07/17 05:27:57;;;;;;;5.95;1.88;;;;;;;14.05;67.23;102618.84;5079997;28;20139;-71
2022/07/17 05:30:24;;;;;;;5.95;1.80;;;;;;;14.21;66.97;102613.31;5091076;28;20036;-69
2022/07/17 05:32:51;;;;;;;5.57;1.70;;;;;;;14.36;65.92;102617.47;5089681;28;20101;-70
2022/07/17 05:35:19;;;;;;;5.95;2.00;;;;;;;14.79;65.32;102616.69;5101797;28;20554;-70
2022/07/17 05:37:46;;;;;;;4.78;1.70;;;;;;;16.58;61.29;102611.63;5093186;27;20045;-70
2022/07/17 05:40:13;;;;;;;5.60;1.75;;;;;;;19.20;53.87;102605.78;5088209;28;20107;-70
2022/07/17 05:42:40;;;;;;;5.07;1.67;;;;;;;21.07;49.32;102602.34;5091416;28;20069;-71
2022/07/17 05:45:08;;;;;;;5.13;1.50;;;;;;;22.58;45.74;102600.31;5090306;28;20045;-71
2022/07/17 05:47:35;;;;;;;3.83;1.40;;;;;;;23.82;42.73;102596.97;5090451;28;20419;-72
2022/07/17 05:50:03;;;;;;;5.13;1.20;;;;;;;24.84;40.61;102580.97;5090389;28;20156;-72
2022/07/17 05:52:30;;;;;;;4.80;1.30;;;;;;;25.72;38.60;102580.66;5097848;28;20502;-73
2022/07/17 05:54:57;;;;;;;6.32;1.45;;;;;;;26.60;36.24;102579.13;5092935;28;20041;-73
2022/07/17 05:57:24;;;;;;;3.25;1.20;;;;;;;26.91;34.72;102580.50;5090669;28;20066;-72
2022/07/17 05:59:51;;;;;;;5.90;1.20;;;;;;;26.88;34.13;102580.72;5091040;28;20076;-74
2022/07/17 06:02:19;;;;;;;6.05;1.30;;;;;;;27.24;33.82;102580.84;5090862;28;20525;-72
2022/07/17 06:04:47;;;;;;;4.88;1.20;;;;;;;27.58;33.10;102583.72;5090933;28;20036;-72
2022/07/17 06:07:14;;;;;;;5.75;1.33;;;;;;;27.82;32.84;102586.44;5088191;28;20048;-72
2022/07/17 06:09:42;;;;;;;3.92;1.20;;;;;;;28.27;32.05;102588.41;5095231;28;20101;-72
2022/07/17 06:12:09;;;;;;;3.85;1.20;;;;;;;28.46;31.33;102578.81;5086616;28;20036;-70
2022/07/17 06:14:36;;;;;;;3.47;1.25;;;;;;;28.36;31.44;102584.09;5090748;28;20045;-72
2022/07/17 06:17:04;;;;;;;4.32;1.10;;;;;;;28.21;30.92;102578.03;5088411;28;20061;-71
2022/07/17 06:19:31;;;;;;;3.95;1.30;;;;;;;26.37;33.84;102581.63;5090025;28;20139;-73
2022/07/17 06:21:59;;;;;;;5.88;1.67;;;;;;;24.13;37.29;102586.19;5086781;28;20044;-72
2022/07/17 06:24:26;;;;;;;5.05;1.20;;;;;;;22.53;40.58;102597.84;5089281;28;20075;-72
2022/07/17 06:26:53;;;;;;;6.40;1.38;;;;;;;21.42;43.07;102593.56;5090094;28;20040;-72
2022/07/17 06:29:20;;;;;;;7.03;1.50;;;;;;;20.55;44.98;102586.81;5087850;28;20045;-72
2022/07/17 06:31:48;;;;;;;5.95;1.42;;;;;;;19.96;46.17;102589.38;5087342;28;20068;-74
2022/07/17 06:34:15;;;;;;;5.07;1.15;;;;;;;19.46;47.62;102585.16;5093214;28;20991;-73
2022/07/17 06:36:43;;;;;;;6.25;1.25;;;;;;;19.13;48.79;102585.56;5092033;28;20068;-74
2022/07/17 06:39:10;;;;;;;4.40;1.13;;;;;;;18.91;49.60;102602.38;5095795;28;20136;-73
2022/07/17 06:41:37;;;;;;;4.00;1.35;;;;;;;18.79;50.35;102605.50;5096159;28;20106;-74
2022/07/17 06:44:04;;;;;;;3.88;1.20;;;;;;;18.71;50.24;102608.50;5094045;28;20039;-72
2022/07/17 06:46:31;;;;;;;8.85;1.63;;;;;;;18.65;50.43;102607.84;5091261;28;20353;-74
2022/07/17 06:48:59;;;;;;;6.45;1.30;;;;;;;18.61;50.60;102612.44;5098413;28;20064;-73
2022/07/17 06:51:26;;;;;;;7.20;1.10;;;;;;;18.56;50.95;102604.59;5093993;28;20068;-72
2022/07/17 06:53:53;;;;;;;3.35;1.10;;;;;;;18.59;51.08;102593.78;5092961;28;20098;-72
2022/07/17 06:56:20;;;;;;;6.93;1.60;;;;;;;18.61;50.75;102594.59;5093006;28;20090;-73
2022/07/17 06:58:48;;;;;;;5.32;1.70;;;;;;;18.63;50.77;102607.88;5089702;27;20094;-72
2022/07/17 07:01:15;;;;;;;5.20;1.77;;;;;;;18.65;50.74;102611.38;5089704;28;20044;-72
2022/07/17 07:03:42;;;;;;;6.05;1.48;;;;;;;18.66;50.70;102617.59;5090803;28;20068;-72
2022/07/17 07:06:11;;;;;;;5.53;1.60;;;;;;;18.67;50.82;102622.88;5091376;28;20107;-73
2022/07/17 07:08:38;;;;;;;6.35;1.52;;;;;;;18.70;50.58;102632.56;5090359;28;20033;-71
2022/07/17 07:11:06;;;;;;;6.03;1.55;;;;;;;18.67;50.61;102649.59;5092782;28;20763;-73
2022/07/17 07:13:33;;;;;;;6.18;1.80;;;;;;;18.67;50.49;102643.38;5088571;28;20051;-72
2022/07/17 07:16:02;;;;;;;9.02;1.88;;;;;;;18.69;50.74;102637.06;5087521;28;20884;-74
2022/07/17 07:18:29;;;;;;;7.25;1.50;;;;;;;18.73;50.78;102645.81;5089142;28;20044;-73
2022/07/17 07:20:57;;;;;;;4.80;1.50;;;;;;;18.79;49.94;102637.56;5088913;28;20048;-72
2022/07/17 07:23:24;;;;;;;4.40;1.50;;;;;;;18.74;50.16;102636.88;5091782;27;20123;-72
2022/07/17 07:25:52;;;;;;;8.07;1.42;;;;;;;18.76;50.06;102643.06;5091766;28;20537;-73
2022/07/17 07:28:19;;;;;;;7.15;1.63;;;;;;;18.78;50.07;102644.72;5091458;28;20448;-73
2022/07/17 07:30:56;;;;;;;7.07;1.67;;;;;;;18.82;49.67;102645.47;5091504;28;21722;-72
2022/07/17 07:33:49;;;;;;;8.48;1.77;;;;;;;18.82;50.24;102639.28;5092697;28;20029;-72
2022/07/17 07:36:16;;;;;;;6.40;1.50;;;;;;;18.87;49.99;102637.31;5093276;28;20503;-73
2022/07/17 07:38:45;;;;;;;7.32;1.70;;;;;;;18.95;49.57;102645.94;5093059;28;20107;-73
2022/07/17 07:41:13;;;;;;;6.68;1.60;;;;;;;18.95;49.37;102642.41;5089470;28;20056;-73
2022/07/17 07:43:46;;;;;;;6.25;1.58;;;;;;;18.99;49.33;102652.91;5093416;28;20064;-74
2022/07/17 07:46:13;;;;;;;8.60;1.52;;;;;;;19.01;49.14;102648.41;5084582;28;20553;-75
2022/07/17 07:48:41;;;;;;;5.13;1.40;;;;;;;19.13;49.10;102641.69;5085607;28;20037;-75
2022/07/17 07:51:08;;;;;;;4.55;1.48;;;;;;;19.28;48.87;102642.91;5088376;28;20795;-74
2022/07/17 07:53:35;;;;;;;7.57;1.50;;;;;;;19.40;49.10;102633.53;5085441;28;20045;-74
2022/07/17 07:56:07;;;;;;;6.10;1.60;;;;;;;19.59;48.77;102635.47;5087008;28;20060;-74
2022/07/17 07:58:34;;;;;;;9.00;1.65;;;;;;;19.74;48.38;102639.34;5083108;28;20041;-73
2022/07/17 08:01:01;;;;;;;7.18;1.55;;;;;;;19.84;48.09;102646.94;5083984;28;20041;-74
2022/07/17 08:03:30;;;;;;;7.60;1.42;;;;;;;19.88;48.56;102645.03;5084442;28;20850;-74
2022/07/17 08:05:57;;;;;;;7.35;1.40;;;;;;;19.97;48.52;102636.63;5083679;28;20072;-73
2022/07/17 08:08:24;;;;;;;5.80;1.30;;;;;;;20.09;47.04;102645.97;5097494;27;20048;-73
2022/07/17 08:10:51;;;;;;;7.40;1.40;;;;;;;20.08;46.78;102648.69;5083720;28;20119;-74
2022/07/17 08:13:19;;;;;;;4.22;1.40;;;;;;;20.06;46.78;102643.41;5085171;28;20037;-74
2022/07/17 08:15:46;;;;;;;5.88;1.42;;;;;;;20.14;46.83;102649.28;5082291;28;20051;-73
2022/07/17 08:18:13;;;;;;;6.28;1.35;;;;;;;20.29;46.08;102647.78;5082636;28;20052;-72
2022/07/17 08:20:41;;;;;;;5.68;1.30;;;;;;;20.35;46.22;102643.09;5082405;28;20076;-74
2022/07/17 08:23:09;;;;;;;4.97;1.10;;;;;;;20.41;45.09;102645.50;5082641;28;20064;-74
2022/07/17 08:25:43;;;;;;;4.45;0.90;;;;;;;20.38;45.29;102638.47;5082155;28;20067;-72
2022/07/17 08:28:11;;;;;;;5.18;1.45;;;;;;;20.45;45.63;102647.13;5082301;28;20123;-71
2022/07/17 08:30:38;;;;;;;6.32;1.23;;;;;;;20.52;45.76;102645.03;5083880;28;20648;-74
2022/07/17 08:33:08;;;;;;;8.07;1.45;;;;;;;20.65;45.48;102643.56;5083263;28;20035;-73
2022/07/17 08:35:36;;;;;;;5.97;1.17;;;;;;;20.76;44.32;102643.97;5084004;28;20056;-72
2022/07/17 08:38:05;;;;;;;5.20;1.10;;;;;;;20.81;44.18;102637.56;5080778;28;20040;-74
2022/07/17 08:40:36;;;;;;;4.25;1.17;;;;;;;20.86;43.43;102643.56;5083174;28;20036;-72
2022/07/17 08:43:06;;;;;;;6.45;1.38;;;;;;;20.87;42.79;102648.84;5099914;27;20044;-73
2022/07/17 08:45:34;;;;;;;3.67;0.90;;;;;;;20.93;43.03;102642.31;5097637;28;20036;-72
2022/07/17 08:48:02;;;;;;;4.78;1.20;;;;;;;20.97;42.79;102643.94;5081218;28;21057;-73
2022/07/17 08:50:33;;;;;;;4.78;1.30;;;;;;;21.00;42.84;102640.25;5082811;28;20685;-72
2022/07/17 08:53:02;;;;;;;3.42;1.00;;;;;;;21.10;42.64;102636.19;5080885;28;20128;-71
2022/07/17 08:55:31;;;;;;;3.85;1.20;;;;;;;21.10;41.91;102637.06;5084426;28;20112;-72
2022/07/17 08:57:59;;;;;;;5.70;1.10;;;;;;;21.10;42.41;102631.72;5081515;28;20037;-72
2022/07/17 09:00:28;;;;;;;3.58;0.73;;;;;;;21.23;42.32;102636.47;5083438;28;20044;-71
2022/07/17 09:03:03;;;;;;;5.90;1.20;;;;;;;21.31;41.70;102639.69;5084131;28;20491;-72
2022/07/17 09:05:35;;;;;;;5.57;0.98;;;;;;;21.45;42.21;102636.34;5083379;28;20040;-72
2022/07/17 09:08:05;;;;;;;2.58;1.00;;;;;;;21.64;41.36;102640.84;5084049;28;20041;-71
2022/07/17 09:10:39;;;;;;;6.10;0.90;;;;;;;21.71;41.45;102644.94;5083652;28;20044;-72
2022/07/17 09:13:23;;;;;;;8.40;1.58;;;;;;;21.78;41.63;102640.16;5081679;28;20102;-70
2022/07/17 09:15:55;;;;;;;5.55;1.20;;;;;;;21.89;41.89;102640.50;5080031;28;20076;-71
2022/07/17 09:18:24;;;;;;;5.03;1.40;;;;;;;21.99;41.46;102633.72;5082618;28;20053;-72
2022/07/17 09:20:56;;;;;;;3.47;1.13;;;;;;;22.09;40.99;102635.94;5079069;28;20184;-72
2022/07/17 09:23:26;;;;;;;6.22;1.05;;;;;;;22.16;40.14;102632.88;5082541;28;20047;-70
2022/07/17 09:25:56;;;;;;;3.03;1.08;;;;;;;22.25;40.46;102636.88;5080927;28;20550;-71
2022/07/17 09:28:24;;;;;;;6.65;1.10;;;;;;;22.30;40.01;102632.16;5078902;28;20049;-71
2022/07/17 09:30:54;;;;;;;6.28;1.05;;;;;;;22.38;39.78;102633.56;5080316;28;20033;-71
2022/07/17 09:33:26;;;;;;;3.53;0.90;;;;;;;22.42;38.81;102632.50;5079573;28;20040;-72
2022/07/17 09:36:08;;;;;;;4.47;1.10;;;;;;;22.40;38.71;102627.19;5080687;28;20037;-72
2022/07/17 09:38:38;;;;;;;3.13;1.00;;;;;;;22.45;38.34;102624.25;5081972;28;20131;-71
2022/07/17 09:41:12;;;;;;;5.03;1.00;;;;;;;22.52;38.68;102633.75;5083406;28;20582;-74
2022/07/17 09:43:48;;;;;;;6.70;1.20;;;;;;;22.63;38.67;102625.09;5082284;28;20113;-72
2022/07/17 09:46:37;;;;;;;4.20;1.00;;;;;;;22.79;37.86;102620.63;5081268;28;20041;-74
2022/07/17 09:49:09;;;;;;;7.13;1.17;;;;;;;22.89;38.43;102622.84;5082797;28;20089;-74
2022/07/17 09:51:39;;;;;;;5.47;1.20;;;;;;;23.01;38.92;102623.97;5081774;28;20099;-73
2022/07/17 09:54:12;;;;;;;3.97;0.98;;;;;;;23.03;38.80;102617.53;5081322;28;20068;-72
2022/07/17 09:56:40;;;;;;;4.88;1.02;;;;;;;23.14;38.21;102614.28;5081498;28;20041;-72
2022/07/17 09:59:13;;;;;;;5.65;1.10;;;;;;;23.14;38.48;102616.97;5084771;28;20119;-73
2022/07/17 10:01:44;;;;;;;4.72;1.15;;;;;;;23.07;37.72;102618.22;5080929;28;20053;-73
2022/07/17 10:04:12;;;;;;;2.88;0.90;;;;;;;23.08;38.28;102622.66;5081458;28;20041;-73
2022/07/17 10:06:39;;;;;;;7.50;0.90;;;;;;;23.21;37.44;102626.44;5080327;28;20036;-74
2022/07/17 10:09:06;;;;;;;5.35;1.20;;;;;;;23.37;37.99;102618.38;5081263;28;20040;-72
2022/07/17 10:11:37;;;;;;;3.17;1.00;;;;;;;23.59;36.03;102625.22;5080129;28;20050;-74
2022/07/17 10:14:16;;;;;;;4.40;0.82;;;;;;;23.56;36.10;102623.56;5081805;28;20137;-75
2022/07/17 10:16:45;;;;;;;3.60;0.93;;;;;;;23.57;36.08;102625.31;5081937;28;20056;-71
2022/07/17 10:19:24;;;;;;;5.32;1.20;;;;;;;23.64;36.50;102619.59;5081657;28;20044;-71
2022/07/17 10:21:55;;;;;;;5.40;1.17;;;;;;;23.64;36.13;102619.59;5085023;28;20124;-73
2022/07/17 10:24:23;;;;;;;6.43;1.35;;;;;;;23.62;36.30;102613.41;5090520;28;20048;-72
2022/07/17 10:26:51;;;;;;;5.45;1.10;;;;;;;23.72;36.32;102609.22;5086831;28;20040;-72
2022/07/17 10:29:37;;;;;;;9.63;1.27;;;;;;;23.90;36.35;102620.75;5088753;28;20044;-73
2022/07/17 10:32:19;;;;;;;3.53;1.15;;;;;;;24.04;36.58;102612.72;5086180;28;20118;-73
2022/07/17 10:34:58;;;;;;;5.13;1.10;;;;;;;24.21;36.07;102613.56;5090158;28;20107;-73
2022/07/17 10:37:38;;;;;;;4.57;1.10;;;;;;;24.39;36.63;102610.69;5088474;28;20487;-72
2022/07/17 10:40:28;;;;;;;6.20;1.10;;;;;;;24.56;36.47;102610.50;5087435;28;20115;-73
2022/07/17 10:43:00;;;;;;;6.32;1.10;;;;;;;24.74;35.55;102608.53;5086252;28;20033;-72
2022/07/17 10:45:39;;;;;;;4.00;0.90;;;;;;;24.81;33.54;102617.94;5088963;28;20072;-71
2022/07/17 10:48:09;;;;;;;3.15;0.80;;;;;;;24.71;32.97;102621.34;5091803;28;20053;-72
2022/07/17 10:50:48;;;;;;;2.40;0.80;;;;;;;24.66;33.97;102610.81;5087490;28;20047;-72
2022/07/17 10:53:26;;;;;;;6.72;1.08;;;;;;;24.78;33.13;102610.03;5086000;28;20727;-71
2022/07/17 10:56:04;;;;;;;4.15;1.10;;;;;;;24.88;33.33;102614.84;5086998;28;20681;-71
2022/07/17 10:58:38;;;;;;;5.35;1.15;;;;;;;24.85;33.07;102623.16;5089151;28;20647;-74
2022/07/17 11:01:16;;;;;;;7.05;0.98;;;;;;;24.86;32.89;102614.97;5088677;28;20099;-72
2022/07/17 11:03:50;;;;;;;5.43;1.20;;;;;;;24.77;33.32;102619.13;5095118;28;20430;-74
2022/07/17 11:06:23;;;;;;;4.53;1.00;;;;;;;24.86;33.48;102616.81;5095701;27;20036;-73
2022/07/17 11:09:00;;;;;;;3.28;1.00;;;;;;;25.04;33.38;102610.22;5091812;28;20040;-72
2022/07/17 11:11:38;;;;;;;5.13;1.20;;;;;;;25.19;34.10;102615.59;5088202;28;20120;-72
2022/07/17 11:14:19;;;;;;;6.32;1.42;;;;;;;25.34;33.63;102611.03;5084600;28;20040;-71
2022/07/17 11:16:58;;;;;;;4.90;1.00;;;;;;;25.45;33.45;102607.66;5084144;28;20080;-74
2022/07/17 11:19:40;;;;;;;3.67;0.93;;;;;;;25.62;33.10;102607.41;5085615;28;20086;-72
2022/07/17 11:22:11;;;;;;;4.70;1.00;;;;;;;25.77;32.33;102601.94;5090154;28;20045;-73
2022/07/17 11:24:40;;;;;;;3.85;1.17;;;;;;;25.84;32.19;102598.69;5089539;28;20496;-73
2022/07/17 11:27:18;;;;;;;6.38;1.10;;;;;;;25.89;32.20;102601.13;5088840;28;20547;-73
2022/07/17 11:29:48;;;;;;;4.32;1.17;;;;;;;25.93;32.62;102609.88;5090208;28;20467;-71
2022/07/17 11:32:16;;;;;;;8.07;1.00;;;;;;;25.96;31.96;102602.44;5082550;28;20043;-73